sensor_id;sensor_type;location;lat;lon;timestamp;P1;durP1;ratioP1;P2;durP2;ratioP2
74457;SDS011;62896;51.032;3.712;2022-08-19T00:00:10;37.9;;;29.7;;
74457;SDS011;62896;51.032;3.712;2022-08-19T00:03:29;37.9;;;29.7;;
74457;SDS011;62896;51.032;3.712;2022-08-19T00:06:49;37.9;;;29.7;;
74457;SDS011;62896;51.032;3.712;2022-08-19T00:10:11;37.9;;;29.7;;
74457;SDS011;62896;51.032;3.712;2022-08-19T00:13:29;44.4;;;33.7;;
74457;SDS011;62896;51.032;3.712;2022-08-19T00:16:49;44.4;;;33.7;;
74457;SDS011;62896;51.032;3.712;2022-08-19T00:20:16;44.4;;;33.7;;
74457;SDS011;62896;51.032;3.712;2022-08-19T00:23:29;44.4;;;33.7;;
74457;SDS011;62896;51.032;3.712;2022-08-19T00:26:49;44.4;;;33.7;;
74457;SDS011;62896;51.032;3.712;2022-08-19T00:30:09;44.4;;;33.7;;
74457;SDS011;62896;51.032;3.712;2022-08-19T00:33:29;44.4;;;33.7;;
74457;SDS011;62896;51.032;3.712;2022-08-19T00:36:49;44.4;;;33.7;;
74457;SDS011;62896;51.032;3.712;2022-08-19T00:40:10;44.6;;;31.1;;
74457;SDS011;62896;51.032;3.712;2022-08-19T00:43:29;44.6;;;31.1;;
74457;SDS011;62896;51.032;3.712;2022-08-19T00:46:50;44.6;;;31.1;;
74457;SDS011;62896;51.032;3.712;2022-08-19T00:50:10;44.6;;;31.1;;
74457;SDS011;62896;51.032;3.712;2022-08-19T00:53:29;44.6;;;31.1;;
74457;SDS011;62896;51.032;3.712;2022-08-19T00:56:49;44.6;;;31.1;;
74457;SDS011;62896;51.032;3.712;2022-08-19T01:00:11;44.6;;;31.1;;
74457;SDS011;62896;51.032;3.712;2022-08-19T01:03:29;45.5;;;31.3;;
74457;SDS011;62896;51.032;3.712;2022-08-19T01:06:49;45.5;;;31.3;;
74457;SDS011;62896;51.032;3.712;2022-08-19T01:10:10;45.5;;;31.3;;
74457;SDS011;62896;51.032;3.712;2022-08-19T01:13:30;45.5;;;31.3;;
74457;SDS011;62896;51.032;3.712;2022-08-19T01:16:49;45.5;;;31.3;;
74457;SDS011;62896;51.032;3.712;2022-08-19T01:20:10;45.5;;;31.3;;
74457;SDS011;62896;51.032;3.712;2022-08-19T01:23:29;45.5;;;31.3;;
74457;SDS011;62896;51.032;3.712;2022-08-19T01:26:49;45.5;;;31.3;;
74457;SDS011;62896;51.032;3.712;2022-08-19T01:30:10;36.4;;;25.7;;
74457;SDS011;62896;51.032;3.712;2022-08-19T01:33:29;36.4;;;25.7;;
74457;SDS011;62896;51.032;3.712;2022-08-19T01:36:49;36.4;;;25.7;;
74457;SDS011;62896;51.032;3.712;2022-08-19T01:40:09;36.4;;;25.7;;
74457;SDS011;62896;51.032;3.712;2022-08-19T01:43:29;36.4;;;25.7;;
74457;SDS011;62896;51.032;3.712;2022-08-19T01:46:50;36.4;;;25.7;;
74457;SDS011;62896;51.032;3.712;2022-08-19T01:50:09;36.4;;;25.7;;
74457;SDS011;62896;51.032;3.712;2022-08-19T01:53:29;31.2;;;21.5;;
74457;SDS011;62896;51.032;3.712;2022-08-19T01:56:49;31.2;;;21.5;;
74457;SDS011;62896;51.032;3.712;2022-08-19T02:00:11;31.2;;;21.5;;
74457;SDS011;62896;51.032;3.712;2022-08-19T02:03:29;31.2;;;21.5;;
74457;SDS011;62896;51.032;3.712;2022-08-19T02:06:49;31.2;;;21.5;;
74457;SDS011;62896;51.032;3.712;2022-08-19T02:10:10;31.2;;;21.5;;
74457;SDS011;62896;51.032;3.712;2022-08-19T02:13:30;31.2;;;21.5;;
74457;SDS011;62896;51.032;3.712;2022-08-19T02:16:49;31.2;;;21.5;;
74457;SDS011;62896;51.032;3.712;2022-08-19T02:20:09;33;;;21.1;;
74457;SDS011;62896;51.032;3.712;2022-08-19T02:23:29;33;;;21.1;;
74457;SDS011;62896;51.032;3.712;2022-08-19T02:26:49;33;;;21.1;;
74457;SDS011;62896;51.032;3.712;2022-08-19T02:30:11;33;;;21.1;;
74457;SDS011;62896;51.032;3.712;2022-08-19T02:33:29;33;;;21.1;;
74457;SDS011;62896;51.032;3.712;2022-08-19T02:36:49;33;;;21.1;;
74457;SDS011;62896;51.032;3.712;2022-08-19T02:40:09;33;;;21.1;;
74457;SDS011;62896;51.032;3.712;2022-08-19T02:43:30;29.2;;;19.1;;
74457;SDS011;62896;51.032;3.712;2022-08-19T02:46:49;29.2;;;19.1;;
74457;SDS011;62896;51.032;3.712;2022-08-19T02:50:09;29.2;;;19.1;;
74457;SDS011;62896;51.032;3.712;2022-08-19T02:53:29;29.2;;;19.1;;
74457;SDS011;62896;51.032;3.712;2022-08-19T02:56:49;29.2;;;19.1;;
74457;SDS011;62896;51.032;3.712;2022-08-19T03:00:09;29.2;;;19.1;;
74457;SDS011;62896;51.032;3.712;2022-08-19T03:03:29;29.2;;;19.1;;
74457;SDS011;62896;51.032;3.712;2022-08-19T03:06:49;29.2;;;19.1;;
74457;SDS011;62896;51.032;3.712;2022-08-19T03:10:09;30.2;;;18.6;;
74457;SDS011;62896;51.032;3.712;2022-08-19T03:13:29;30.2;;;18.6;;
74457;SDS011;62896;51.032;3.712;2022-08-19T03:16:50;30.2;;;18.6;;
74457;SDS011;62896;51.032;3.712;2022-08-19T03:20:09;30.2;;;18.6;;
74457;SDS011;62896;51.032;3.712;2022-08-19T03:23:29;30.2;;;18.6;;
74457;SDS011;62896;51.032;3.712;2022-08-19T03:26:49;30.2;;;18.6;;
74457;SDS011;62896;51.032;3.712;2022-08-19T03:30:09;30.2;;;18.6;;
74457;SDS011;62896;51.032;3.712;2022-08-19T03:33:29;27.4;;;17.6;;
74457;SDS011;62896;51.032;3.712;2022-08-19T03:36:49;27.4;;;17.6;;
74457;SDS011;62896;51.032;3.712;2022-08-19T03:40:09;27.4;;;17.6;;
74457;SDS011;62896;51.032;3.712;2022-08-19T03:43:29;27.4;;;17.6;;
74457;SDS011;62896;51.032;3.712;2022-08-19T03:46:50;27.4;;;17.6;;
74457;SDS011;62896;51.032;3.712;2022-08-19T03:50:09;27.4;;;17.6;;
74457;SDS011;62896;51.032;3.712;2022-08-19T03:53:29;27.4;;;17.6;;
74457;SDS011;62896;51.032;3.712;2022-08-19T03:56:49;27.4;;;17.6;;
74457;SDS011;62896;51.032;3.712;2022-08-19T04:00:09;26.8;;;16.2;;
74457;SDS011;62896;51.032;3.712;2022-08-19T04:03:29;26.8;;;16.2;;
74457;SDS011;62896;51.032;3.712;2022-08-19T04:06:49;26.8;;;16.2;;
74457;SDS011;62896;51.032;3.712;2022-08-19T04:10:09;26.8;;;16.2;;
74457;SDS011;62896;51.032;3.712;2022-08-19T04:13:29;26.8;;;16.2;;
74457;SDS011;62896;51.032;3.712;2022-08-19T04:16:49;26.8;;;16.2;;
74457;SDS011;62896;51.032;3.712;2022-08-19T04:20:09;26.8;;;16.2;;
74457;SDS011;62896;51.032;3.712;2022-08-19T04:23:29;28.4;;;15.7;;
74457;SDS011;62896;51.032;3.712;2022-08-19T04:26:49;28.4;;;15.7;;
74457;SDS011;62896;51.032;3.712;2022-08-19T04:30:09;28.4;;;15.7;;
74457;SDS011;62896;51.032;3.712;2022-08-19T04:33:29;28.4;;;15.7;;
74457;SDS011;62896;51.032;3.712;2022-08-19T04:36:49;28.4;;;15.7;;
74457;SDS011;62896;51.032;3.712;2022-08-19T04:40:09;28.4;;;15.7;;
74457;SDS011;62896;51.032;3.712;2022-08-19T04:43:29;28.4;;;15.7;;
74457;SDS011;62896;51.032;3.712;2022-08-19T04:46:49;28.4;;;15.7;;
74457;SDS011;62896;51.032;3.712;2022-08-19T04:50:09;24.8;;;14.2;;
74457;SDS011;62896;51.032;3.712;2022-08-19T04:53:30;24.8;;;14.2;;
74457;SDS011;62896;51.032;3.712;2022-08-19T04:56:49;24.8;;;14.2;;
74457;SDS011;62896;51.032;3.712;2022-08-19T05:00:10;24.8;;;14.2;;
74457;SDS011;62896;51.032;3.712;2022-08-19T05:03:29;24.8;;;14.2;;
74457;SDS011;62896;51.032;3.712;2022-08-19T05:06:49;24.8;;;14.2;;
74457;SDS011;62896;51.032;3.712;2022-08-19T05:10:09;24.8;;;14.2;;
74457;SDS011;62896;51.032;3.712;2022-08-19T05:13:29;20.6;;;12.9;;
74457;SDS011;62896;51.032;3.712;2022-08-19T05:16:49;20.6;;;12.9;;
74457;SDS011;62896;51.032;3.712;2022-08-19T05:20:09;20.6;;;12.9;;
74457;SDS011;62896;51.032;3.712;2022-08-19T05:23:29;20.6;;;12.9;;
74457;SDS011;62896;51.032;3.712;2022-08-19T05:26:50;20.6;;;12.9;;
74457;SDS011;62896;51.032;3.712;2022-08-19T05:30:09;20.6;;;12.9;;
74457;SDS011;62896;51.032;3.712;2022-08-19T05:33:29;20.6;;;12.9;;
74457;SDS011;62896;51.032;3.712;2022-08-19T05:36:49;20.6;;;12.9;;
74457;SDS011;62896;51.032;3.712;2022-08-19T05:40:09;20.3;;;11.8;;
74457;SDS011;62896;51.032;3.712;2022-08-19T05:43:29;20.3;;;11.8;;
74457;SDS011;62896;51.032;3.712;2022-08-19T05:46:49;20.3;;;11.8;;
74457;SDS011;62896;51.032;3.712;2022-08-19T05:50:09;20.3;;;11.8;;
74457;SDS011;62896;51.032;3.712;2022-08-19T05:53:29;20.3;;;11.8;;
74457;SDS011;62896;51.032;3.712;2022-08-19T05:56:49;20.3;;;11.8;;
74457;SDS011;62896;51.032;3.712;2022-08-19T06:00:09;20.3;;;11.8;;
74457;SDS011;62896;51.032;3.712;2022-08-19T06:03:29;18;;;10.9;;
74457;SDS011;62896;51.032;3.712;2022-08-19T06:06:50;18;;;10.9;;
74457;SDS011;62896;51.032;3.712;2022-08-19T06:10:10;18;;;10.9;;
74457;SDS011;62896;51.032;3.712;2022-08-19T06:13:29;18;;;10.9;;
74457;SDS011;62896;51.032;3.712;2022-08-19T06:16:49;18;;;10.9;;
74457;SDS011;62896;51.032;3.712;2022-08-19T06:20:10;18;;;10.9;;
74457;SDS011;62896;51.032;3.712;2022-08-19T06:23:29;18;;;10.9;;
74457;SDS011;62896;51.032;3.712;2022-08-19T06:26:49;18;;;10.9;;
74457;SDS011;62896;51.032;3.712;2022-08-19T06:30:09;17.5;;;10.4;;
74457;SDS011;62896;51.032;3.712;2022-08-19T06:33:29;17.5;;;10.4;;
74457;SDS011;62896;51.032;3.712;2022-08-19T06:36:50;17.5;;;10.4;;
74457;SDS011;62896;51.032;3.712;2022-08-19T06:40:09;17.5;;;10.4;;
74457;SDS011;62896;51.032;3.712;2022-08-19T06:43:29;17.5;;;10.4;;
74457;SDS011;62896;51.032;3.712;2022-08-19T06:46:49;17.5;;;10.4;;
74457;SDS011;62896;51.032;3.712;2022-08-19T06:50:09;17.5;;;10.4;;
74457;SDS011;62896;51.032;3.712;2022-08-19T06:53:29;18.3;;;9;;
74457;SDS011;62896;51.032;3.712;2022-08-19T06:56:49;18.3;;;9;;
74457;SDS011;62896;51.032;3.712;2022-08-19T07:00:09;18.3;;;9;;
74457;SDS011;62896;51.032;3.712;2022-08-19T07:03:29;18.3;;;9;;
74457;SDS011;62896;51.032;3.712;2022-08-19T07:06:49;18.3;;;9;;
74457;SDS011;62896;51.032;3.712;2022-08-19T07:10:09;18.3;;;9;;
74457;SDS011;62896;51.032;3.712;2022-08-19T07:13:29;18.3;;;9;;
74457;SDS011;62896;51.032;3.712;2022-08-19T07:16:49;18.3;;;9;;
74457;SDS011;62896;51.032;3.712;2022-08-19T07:20:09;15.2;;;8.5;;
74457;SDS011;62896;51.032;3.712;2022-08-19T07:23:29;15.2;;;8.5;;
74457;SDS011;62896;51.032;3.712;2022-08-19T07:26:49;15.2;;;8.5;;
74457;SDS011;62896;51.032;3.712;2022-08-19T07:30:09;15.2;;;8.5;;
74457;SDS011;62896;51.032;3.712;2022-08-19T07:33:29;15.2;;;8.5;;
74457;SDS011;62896;51.032;3.712;2022-08-19T07:36:49;15.2;;;8.5;;
74457;SDS011;62896;51.032;3.712;2022-08-19T07:40:09;15.2;;;8.5;;
74457;SDS011;62896;51.032;3.712;2022-08-19T07:43:29;12.2;;;7.9;;
74457;SDS011;62896;51.032;3.712;2022-08-19T07:46:49;12.2;;;7.9;;
74457;SDS011;62896;51.032;3.712;2022-08-19T07:50:09;12.2;;;7.9;;
74457;SDS011;62896;51.032;3.712;2022-08-19T07:53:29;12.2;;;7.9;;
74457;SDS011;62896;51.032;3.712;2022-08-19T07:56:49;12.2;;;7.9;;
74457;SDS011;62896;51.032;3.712;2022-08-19T08:00:09;12.2;;;7.9;;
74457;SDS011;62896;51.032;3.712;2022-08-19T08:03:29;12.2;;;7.9;;
74457;SDS011;62896;51.032;3.712;2022-08-19T08:06:49;12.2;;;7.9;;
74457;SDS011;62896;51.032;3.712;2022-08-19T08:10:09;13.4;;;8;;
74457;SDS011;62896;51.032;3.712;2022-08-19T08:13:29;13.4;;;8;;
74457;SDS011;62896;51.032;3.712;2022-08-19T08:16:49;13.4;;;8;;
74457;SDS011;62896;51.032;3.712;2022-08-19T08:20:09;13.4;;;8;;
74457;SDS011;62896;51.032;3.712;2022-08-19T08:23:29;13.4;;;8;;
74457;SDS011;62896;51.032;3.712;2022-08-19T08:26:49;13.4;;;8;;
74457;SDS011;62896;51.032;3.712;2022-08-19T08:30:10;13.4;;;8;;
74457;SDS011;62896;51.032;3.712;2022-08-19T08:33:29;13.1;;;8.3;;
74457;SDS011;62896;51.032;3.712;2022-08-19T08:36:49;13.1;;;8.3;;
74457;SDS011;62896;51.032;3.712;2022-08-19T08:40:10;13.1;;;8.3;;
74457;SDS011;62896;51.032;3.712;2022-08-19T08:43:29;13.1;;;8.3;;
74457;SDS011;62896;51.032;3.712;2022-08-19T08:46:49;13.1;;;8.3;;
74457;SDS011;62896;51.032;3.712;2022-08-19T08:50:10;13.1;;;8.3;;
74457;SDS011;62896;51.032;3.712;2022-08-19T08:53:29;13.1;;;8.3;;
74457;SDS011;62896;51.032;3.712;2022-08-19T08:56:49;13.1;;;8.3;;
74457;SDS011;62896;51.032;3.712;2022-08-19T09:00:10;12.6;;;8;;
74457;SDS011;62896;51.032;3.712;2022-08-19T09:03:29;12.6;;;8;;
74457;SDS011;62896;51.032;3.712;2022-08-19T09:06:50;12.6;;;8;;
74457;SDS011;62896;51.032;3.712;2022-08-19T09:10:10;12.6;;;8;;
74457;SDS011;62896;51.032;3.712;2022-08-19T09:13:30;12.6;;;8;;
74457;SDS011;62896;51.032;3.712;2022-08-19T09:16:49;12.6;;;8;;
74457;SDS011;62896;51.032;3.712;2022-08-19T09:20:14;12.6;;;8;;
74457;SDS011;62896;51.032;3.712;2022-08-19T09:23:29;10.7;;;7;;
74457;SDS011;62896;51.032;3.712;2022-08-19T09:26:49;10.7;;;7;;
74457;SDS011;62896;51.032;3.712;2022-08-19T09:30:11;10.7;;;7;;
74457;SDS011;62896;51.032;3.712;2022-08-19T09:33:29;10.7;;;7;;
74457;SDS011;62896;51.032;3.712;2022-08-19T09:36:49;10.7;;;7;;
74457;SDS011;62896;51.032;3.712;2022-08-19T09:40:09;10.7;;;7;;
74457;SDS011;62896;51.032;3.712;2022-08-19T09:43:29;10.7;;;7;;
74457;SDS011;62896;51.032;3.712;2022-08-19T09:46:49;10.7;;;7;;
74457;SDS011;62896;51.032;3.712;2022-08-19T09:50:09;7;;;4.5;;
74457;SDS011;62896;51.032;3.712;2022-08-19T09:53:29;7;;;4.5;;
74457;SDS011;62896;51.032;3.712;2022-08-19T09:56:49;7;;;4.5;;
74457;SDS011;62896;51.032;3.712;2022-08-19T10:00:09;7;;;4.5;;
74457;SDS011;62896;51.032;3.712;2022-08-19T10:03:29;7;;;4.5;;
74457;SDS011;62896;51.032;3.712;2022-08-19T10:06:49;7;;;4.5;;
74457;SDS011;62896;51.032;3.712;2022-08-19T10:10:09;7;;;4.5;;
74457;SDS011;62896;51.032;3.712;2022-08-19T10:13:30;6.6;;;3.7;;
74457;SDS011;62896;51.032;3.712;2022-08-19T10:16:49;6.6;;;3.7;;
74457;SDS011;62896;51.032;3.712;2022-08-19T10:20:09;6.6;;;3.7;;
74457;SDS011;62896;51.032;3.712;2022-08-19T10:23:29;6.6;;;3.7;;
74457;SDS011;62896;51.032;3.712;2022-08-19T10:26:49;6.6;;;3.7;;
74457;SDS011;62896;51.032;3.712;2022-08-19T10:30:09;6.6;;;3.7;;
74457;SDS011;62896;51.032;3.712;2022-08-19T10:33:29;6.6;;;3.7;;
74457;SDS011;62896;51.032;3.712;2022-08-19T10:36:49;6.6;;;3.7;;
74457;SDS011;62896;51.032;3.712;2022-08-19T10:40:09;5.9;;;4;;
74457;SDS011;62896;51.032;3.712;2022-08-19T10:43:29;5.9;;;4;;
74457;SDS011;62896;51.032;3.712;2022-08-19T10:46:49;5.9;;;4;;
74457;SDS011;62896;51.032;3.712;2022-08-19T10:50:09;5.9;;;4;;
74457;SDS011;62896;51.032;3.712;2022-08-19T10:53:29;5.9;;;4;;
74457;SDS011;62896;51.032;3.712;2022-08-19T10:56:49;5.9;;;4;;
74457;SDS011;62896;51.032;3.712;2022-08-19T11:00:09;5.9;;;4;;
74457;SDS011;62896;51.032;3.712;2022-08-19T11:03:29;4.5;;;3.6;;
74457;SDS011;62896;51.032;3.712;2022-08-19T11:06:49;4.5;;;3.6;;
74457;SDS011;62896;51.032;3.712;2022-08-19T11:10:09;4.5;;;3.6;;
74457;SDS011;62896;51.032;3.712;2022-08-19T11:13:30;4.5;;;3.6;;
74457;SDS011;62896;51.032;3.712;2022-08-19T11:16:49;4.5;;;3.6;;
74457;SDS011;62896;51.032;3.712;2022-08-19T11:20:10;4.5;;;3.6;;
74457;SDS011;62896;51.032;3.712;2022-08-19T11:23:29;4.5;;;3.6;;
74457;SDS011;62896;51.032;3.712;2022-08-19T11:26:50;4.5;;;3.6;;
74457;SDS011;62896;51.032;3.712;2022-08-19T11:30:09;5.2;;;3;;
74457;SDS011;62896;51.032;3.712;2022-08-19T11:33:29;5.2;;;3;;
74457;SDS011;62896;51.032;3.712;2022-08-19T11:36:50;5.2;;;3;;
74457;SDS011;62896;51.032;3.712;2022-08-19T11:40:09;5.2;;;3;;
74457;SDS011;62896;51.032;3.712;2022-08-19T11:43:29;5.2;;;3;;
74457;SDS011;62896;51.032;3.712;2022-08-19T11:46:49;5.2;;;3;;
74457;SDS011;62896;51.032;3.712;2022-08-19T11:50:09;5.2;;;3;;
74457;SDS011;62896;51.032;3.712;2022-08-19T11:53:29;3.5;;;1.6;;
74457;SDS011;62896;51.032;3.712;2022-08-19T11:56:49;3.5;;;1.6;;
74457;SDS011;62896;51.032;3.712;2022-08-19T12:00:09;3.5;;;1.6;;
74457;SDS011;62896;51.032;3.712;2022-08-19T12:03:29;3.5;;;1.6;;
74457;SDS011;62896;51.032;3.712;2022-08-19T12:06:49;3.5;;;1.6;;
74457;SDS011;62896;51.032;3.712;2022-08-19T12:10:09;3.5;;;1.6;;
74457;SDS011;62896;51.032;3.712;2022-08-19T12:13:29;3.5;;;1.6;;
74457;SDS011;62896;51.032;3.712;2022-08-19T12:16:49;3.5;;;1.6;;
74457;SDS011;62896;51.032;3.712;2022-08-19T12:20:09;1.7;;;0.9;;
74457;SDS011;62896;51.032;3.712;2022-08-19T12:23:29;1.7;;;0.9;;
74457;SDS011;62896;51.032;3.712;2022-08-19T12:26:49;1.7;;;0.9;;
74457;SDS011;62896;51.032;3.712;2022-08-19T12:30:10;1.7;;;0.9;;
74457;SDS011;62896;51.032;3.712;2022-08-19T12:33:29;1.7;;;0.9;;
74457;SDS011;62896;51.032;3.712;2022-08-19T12:36:49;1.7;;;0.9;;
74457;SDS011;62896;51.032;3.712;2022-08-19T12:40:10;1.7;;;0.9;;
74457;SDS011;62896;51.032;3.712;2022-08-19T12:43:29;2.9;;;2;;
74457;SDS011;62896;51.032;3.712;2022-08-19T12:46:49;2.9;;;2;;
74457;SDS011;62896;51.032;3.712;2022-08-19T12:50:09;2.9;;;2;;
74457;SDS011;62896;51.032;3.712;2022-08-19T12:53:29;2.9;;;2;;
74457;SDS011;62896;51.032;3.712;2022-08-19T12:56:49;2.9;;;2;;
74457;SDS011;62896;51.032;3.712;2022-08-19T13:00:10;2.9;;;2;;
74457;SDS011;62896;51.032;3.712;2022-08-19T13:03:29;2.9;;;2;;
74457;SDS011;62896;51.032;3.712;2022-08-19T13:06:49;2.9;;;2;;
74457;SDS011;62896;51.032;3.712;2022-08-19T13:10:10;3;;;1.7;;
74457;SDS011;62896;51.032;3.712;2022-08-19T13:13:29;3;;;1.7;;
74457;SDS011;62896;51.032;3.712;2022-08-19T13:16:49;3;;;1.7;;
74457;SDS011;62896;51.032;3.712;2022-08-19T13:20:10;3;;;1.7;;
74457;SDS011;62896;51.032;3.712;2022-08-19T13:23:29;3;;;1.7;;
74457;SDS011;62896;51.032;3.712;2022-08-19T13:26:49;3;;;1.7;;
74457;SDS011;62896;51.032;3.712;2022-08-19T13:30:10;3;;;1.7;;
74457;SDS011;62896;51.032;3.712;2022-08-19T13:33:29;6.5;;;1.7;;
74457;SDS011;62896;51.032;3.712;2022-08-19T13:36:49;6.5;;;1.7;;
74457;SDS011;62896;51.032;3.712;2022-08-19T13:40:11;6.5;;;1.7;;
74457;SDS011;62896;51.032;3.712;2022-08-19T13:43:29;6.5;;;1.7;;
74457;SDS011;62896;51.032;3.712;2022-08-19T13:46:49;6.5;;;1.7;;
74457;SDS011;62896;51.032;3.712;2022-08-19T13:50:09;6.5;;;1.7;;
74457;SDS011;62896;51.032;3.712;2022-08-19T13:53:29;6.5;;;1.7;;
74457;SDS011;62896;51.032;3.712;2022-08-19T13:56:49;6.5;;;1.7;;
74457;SDS011;62896;51.032;3.712;2022-08-19T14:00:10;3.7;;;1.3;;
74457;SDS011;62896;51.032;3.712;2022-08-19T14:03:29;3.7;;;1.3;;
74457;SDS011;62896;51.032;3.712;2022-08-19T14:06:49;3.7;;;1.3;;
74457;SDS011;62896;51.032;3.712;2022-08-19T14:10:10;3.7;;;1.3;;
74457;SDS011;62896;51.032;3.712;2022-08-19T14:13:29;3.7;;;1.3;;
74457;SDS011;62896;51.032;3.712;2022-08-19T14:16:49;3.7;;;1.3;;
74457;SDS011;62896;51.032;3.712;2022-08-19T14:20:09;3.7;;;1.3;;
74457;SDS011;62896;51.032;3.712;2022-08-19T14:23:29;2.6;;;1.6;;
74457;SDS011;62896;51.032;3.712;2022-08-19T14:26:49;2.6;;;1.6;;
74457;SDS011;62896;51.032;3.712;2022-08-19T14:30:10;2.6;;;1.6;;
74457;SDS011;62896;51.032;3.712;2022-08-19T14:33:29;2.6;;;1.6;;
74457;SDS011;62896;51.032;3.712;2022-08-19T14:36:49;2.6;;;1.6;;
74457;SDS011;62896;51.032;3.712;2022-08-19T14:40:09;2.6;;;1.6;;
74457;SDS011;62896;51.032;3.712;2022-08-19T14:43:29;2.6;;;1.6;;
74457;SDS011;62896;51.032;3.712;2022-08-19T14:46:49;2.6;;;1.6;;
74457;SDS011;62896;51.032;3.712;2022-08-19T14:50:09;4;;;2.8;;
74457;SDS011;62896;51.032;3.712;2022-08-19T14:53:29;4;;;2.8;;
74457;SDS011;62896;51.032;3.712;2022-08-19T14:56:49;4;;;2.8;;
74457;SDS011;62896;51.032;3.712;2022-08-19T15:00:10;4;;;2.8;;
74457;SDS011;62896;51.032;3.712;2022-08-19T15:03:29;4;;;2.8;;
74457;SDS011;62896;51.032;3.712;2022-08-19T15:06:49;4;;;2.8;;
74457;SDS011;62896;51.032;3.712;2022-08-19T15:10:10;4;;;2.8;;
74457;SDS011;62896;51.032;3.712;2022-08-19T15:13:29;9;;;4.3;;
74457;SDS011;62896;51.032;3.712;2022-08-19T15:16:48;9;;;4.3;;
74457;SDS011;62896;51.032;3.712;2022-08-19T15:20:09;9;;;4.3;;
74457;SDS011;62896;51.032;3.712;2022-08-19T15:23:28;9;;;4.3;;
74457;SDS011;62896;51.032;3.712;2022-08-19T15:26:48;9;;;4.3;;
74457;SDS011;62896;51.032;3.712;2022-08-19T15:30:09;9;;;4.3;;
74457;SDS011;62896;51.032;3.712;2022-08-19T15:33:30;9;;;4.3;;
74457;SDS011;62896;51.032;3.712;2022-08-19T15:36:48;9;;;4.3;;
74457;SDS011;62896;51.032;3.712;2022-08-19T15:40:09;6.9;;;4;;
74457;SDS011;62896;51.032;3.712;2022-08-19T15:43:28;6.9;;;4;;
74457;SDS011;62896;51.032;3.712;2022-08-19T15:46:48;6.9;;;4;;
74457;SDS011;62896;51.032;3.712;2022-08-19T15:50:10;6.9;;;4;;
74457;SDS011;62896;51.032;3.712;2022-08-19T15:53:28;6.9;;;4;;
74457;SDS011;62896;51.032;3.712;2022-08-19T15:56:49;6.9;;;4;;
74457;SDS011;62896;51.032;3.712;2022-08-19T16:00:09;6.9;;;4;;
74457;SDS011;62896;51.032;3.712;2022-08-19T16:03:28;8.9;;;4.6;;
74457;SDS011;62896;51.032;3.712;2022-08-19T16:06:49;8.9;;;4.6;;
74457;SDS011;62896;51.032;3.712;2022-08-19T16:10:08;8.9;;;4.6;;
74457;SDS011;62896;51.032;3.712;2022-08-19T16:13:29;8.9;;;4.6;;
74457;SDS011;62896;51.032;3.712;2022-08-19T16:16:48;8.9;;;4.6;;
74457;SDS011;62896;51.032;3.712;2022-08-19T16:20:09;8.9;;;4.6;;
74457;SDS011;62896;51.032;3.712;2022-08-19T16:23:28;8.9;;;4.6;;
74457;SDS011;62896;51.032;3.712;2022-08-19T16:26:49;8.9;;;4.6;;
74457;SDS011;62896;51.032;3.712;2022-08-19T16:30:09;8.1;;;4.9;;
74457;SDS011;62896;51.032;3.712;2022-08-19T16:33:28;8.1;;;4.9;;
74457;SDS011;62896;51.032;3.712;2022-08-19T16:36:48;8.1;;;4.9;;
74457;SDS011;62896;51.032;3.712;2022-08-19T16:40:09;8.1;;;4.9;;
74457;SDS011;62896;51.032;3.712;2022-08-19T16:43:29;8.1;;;4.9;;
74457;SDS011;62896;51.032;3.712;2022-08-19T16:46:48;8.1;;;4.9;;
74457;SDS011;62896;51.032;3.712;2022-08-19T16:50:08;8.1;;;4.9;;
74457;SDS011;62896;51.032;3.712;2022-08-19T16:53:28;8.1;;;3.4;;
74457;SDS011;62896;51.032;3.712;2022-08-19T16:56:48;8.1;;;3.4;;
74457;SDS011;62896;51.032;3.712;2022-08-19T17:00:09;8.1;;;3.4;;
74457;SDS011;62896;51.032;3.712;2022-08-19T17:03:29;8.1;;;3.4;;
74457;SDS011;62896;51.032;3.712;2022-08-19T17:06:48;8.1;;;3.4;;
74457;SDS011;62896;51.032;3.712;2022-08-19T17:10:08;8.1;;;3.4;;
74457;SDS011;62896;51.032;3.712;2022-08-19T17:13:29;8.1;;;3.4;;
74457;SDS011;62896;51.032;3.712;2022-08-19T17:16:48;8.1;;;3.4;;
74457;SDS011;62896;51.032;3.712;2022-08-19T17:20:09;6.6;;;3.3;;
74457;SDS011;62896;51.032;3.712;2022-08-19T17:23:28;6.6;;;3.3;;
74457;SDS011;62896;51.032;3.712;2022-08-19T17:26:48;6.6;;;3.3;;
74457;SDS011;62896;51.032;3.712;2022-08-19T17:30:09;6.6;;;3.3;;
74457;SDS011;62896;51.032;3.712;2022-08-19T17:33:28;6.6;;;3.3;;
74457;SDS011;62896;51.032;3.712;2022-08-19T17:36:48;6.6;;;3.3;;
74457;SDS011;62896;51.032;3.712;2022-08-19T17:40:09;6.6;;;3.3;;
74457;SDS011;62896;51.032;3.712;2022-08-19T17:43:29;6;;;2.9;;
74457;SDS011;62896;51.032;3.712;2022-08-19T17:46:48;6;;;2.9;;
74457;SDS011;62896;51.032;3.712;2022-08-19T17:50:09;6;;;2.9;;
74457;SDS011;62896;51.032;3.712;2022-08-19T17:53:28;6;;;2.9;;
74457;SDS011;62896;51.032;3.712;2022-08-19T17:56:48;6;;;2.9;;
74457;SDS011;62896;51.032;3.712;2022-08-19T18:00:09;6;;;2.9;;
74457;SDS011;62896;51.032;3.712;2022-08-19T18:03:28;6;;;2.9;;
74457;SDS011;62896;51.032;3.712;2022-08-19T18:06:48;6;;;2.9;;
74457;SDS011;62896;51.032;3.712;2022-08-19T18:10:09;7.4;;;3;;
74457;SDS011;62896;51.032;3.712;2022-08-19T18:13:28;7.4;;;3;;
74457;SDS011;62896;51.032;3.712;2022-08-19T18:16:48;7.4;;;3;;
74457;SDS011;62896;51.032;3.712;2022-08-19T18:20:10;7.4;;;3;;
74457;SDS011;62896;51.032;3.712;2022-08-19T18:23:28;7.4;;;3;;
74457;SDS011;62896;51.032;3.712;2022-08-19T18:26:48;7.4;;;3;;
74457;SDS011;62896;51.032;3.712;2022-08-19T18:30:09;7.4;;;3;;
74457;SDS011;62896;51.032;3.712;2022-08-19T18:33:28;2.8;;;1.6;;
74457;SDS011;62896;51.032;3.712;2022-08-19T18:36:48;2.8;;;1.6;;
74457;SDS011;62896;51.032;3.712;2022-08-19T18:40:10;2.8;;;1.6;;
74457;SDS011;62896;51.032;3.712;2022-08-19T18:43:28;2.8;;;1.6;;
74457;SDS011;62896;51.032;3.712;2022-08-19T18:46:48;2.8;;;1.6;;
74457;SDS011;62896;51.032;3.712;2022-08-19T18:50:08;2.8;;;1.6;;
74457;SDS011;62896;51.032;3.712;2022-08-19T18:53:29;2.8;;;1.6;;
74457;SDS011;62896;51.032;3.712;2022-08-19T18:56:49;2.8;;;1.6;;
74457;SDS011;62896;51.032;3.712;2022-08-19T19:00:09;2.6;;;0.9;;
74457;SDS011;62896;51.032;3.712;2022-08-19T19:03:28;2.6;;;0.9;;
74457;SDS011;62896;51.032;3.712;2022-08-19T19:06:49;2.6;;;0.9;;
74457;SDS011;62896;51.032;3.712;2022-08-19T19:10:08;2.6;;;0.9;;
74457;SDS011;62896;51.032;3.712;2022-08-19T19:13:28;2.6;;;0.9;;
74457;SDS011;62896;51.032;3.712;2022-08-19T19:16:48;2.6;;;0.9;;
74457;SDS011;62896;51.032;3.712;2022-08-19T19:20:08;2.6;;;0.9;;
74457;SDS011;62896;51.032;3.712;2022-08-19T19:23:29;3.9;;;1;;
74457;SDS011;62896;51.032;3.712;2022-08-19T19:26:49;3.9;;;1;;
74457;SDS011;62896;51.032;3.712;2022-08-19T19:30:09;3.9;;;1;;
74457;SDS011;62896;51.032;3.712;2022-08-19T19:33:28;3.9;;;1;;
74457;SDS011;62896;51.032;3.712;2022-08-19T19:36:49;3.9;;;1;;
74457;SDS011;62896;51.032;3.712;2022-08-19T19:40:08;3.9;;;1;;
74457;SDS011;62896;51.032;3.712;2022-08-19T19:43:28;3.9;;;1;;
74457;SDS011;62896;51.032;3.712;2022-08-19T19:46:48;3.9;;;1;;
74457;SDS011;62896;51.032;3.712;2022-08-19T19:50:08;3.3;;;0.9;;
74457;SDS011;62896;51.032;3.712;2022-08-19T19:53:28;3.3;;;0.9;;
74457;SDS011;62896;51.032;3.712;2022-08-19T19:56:48;3.3;;;0.9;;
74457;SDS011;62896;51.032;3.712;2022-08-19T20:00:09;3.3;;;0.9;;
74457;SDS011;62896;51.032;3.712;2022-08-19T20:03:29;3.3;;;0.9;;
74457;SDS011;62896;51.032;3.712;2022-08-19T20:06:48;3.3;;;0.9;;
74457;SDS011;62896;51.032;3.712;2022-08-19T20:10:08;3.3;;;0.9;;
74457;SDS011;62896;51.032;3.712;2022-08-19T20:13:28;4.6;;;0.6;;
74457;SDS011;62896;51.032;3.712;2022-08-19T20:16:49;4.6;;;0.6;;
74457;SDS011;62896;51.032;3.712;2022-08-19T20:20:09;4.6;;;0.6;;
74457;SDS011;62896;51.032;3.712;2022-08-19T20:23:28;4.6;;;0.6;;
74457;SDS011;62896;51.032;3.712;2022-08-19T20:26:48;4.6;;;0.6;;
74457;SDS011;62896;51.032;3.712;2022-08-19T20:30:09;4.6;;;0.6;;
74457;SDS011;62896;51.032;3.712;2022-08-19T20:33:28;4.6;;;0.6;;
74457;SDS011;62896;51.032;3.712;2022-08-19T20:36:48;4.6;;;0.6;;